Terminal Aerodrome Forecast
Issued by NWS Knoxville/Tri Cities, TN

Home | Current Version | Previous Version | Text Only | Print | Product List | Glossary On
Versions: 1 2 3 4 5 6 7 8 9 10 11 12
000
FTUS44 KMRX 271134
TAFCHA
TAF
KCHA 271134Z 2712/2812 17006KT P6SM SCT050 BKN250
     FM271900 16007KT P6SM VCTS SCT050CB BKN200
     FM280000 VRB03KT P6SM SCT070 BKN250=

USA.gov is the U.S. government's official web portal to all federal, state and local government web resources and services.